Terminal Aerodrome Forecast
Issued by NWS Charleston, WV

Current Version | Previous Version | Text Only | Print | Product List | Glossary Off
Versions: 1 2 3 4 5 6 7 8 9 10 11 12 13 14 15 16 17 18 19 20 21 22 23 24 25 26 27 28 29 30 31

498
FTUS41 KRLX 181441 AAA
TAFEKN
TAF AMD
KEKN 181441Z 1815/1912 00000KT P6SM SKC
     FM181600 25005KT P6SM BKN050
     FM190400 24009G17KT P6SM -SHRA BKN025=

USA.gov is the U.S. government's official web portal to all federal, state and local government web resources and services.